Terminal Aerodrome Forecast
Issued by NWS

Home | Current Version | Previous Version | Text Only | Print | Product List | Glossary On
Versions: 1 2 3 4 5 6 7 8 9 10 11 12 13
000
FTUS42 KTBW 102300
TAFRSW
TAF
KRSW 102337Z 1100/1124 10004KT P6SM SCT035 BKN250
     FM110300 00000KT P6SM BKN250
     FM111600 12005KT P6SM VCTS SCT045CB BKN150
     FM112000 20006KT P6SM VCTS SCT035CB BKN200=

USA.gov is the U.S. government's official web portal to all federal, state and local government web resources and services.